sensor_id;sensor_type;location;lat;lon;timestamp;pressure;altitude;pressure_sealevel;temperature;humidity
59435;BME280;45241;49.768;8.636;2023-03-20T00:01:50;100408.53;;;12.52;85.22
59435;BME280;45241;49.768;8.636;2023-03-20T00:04:16;100409.31;;;12.39;87.06
59435;BME280;45241;49.768;8.636;2023-03-20T00:06:41;100401.97;;;12.61;85.47
59435;BME280;45241;49.768;8.636;2023-03-20T00:09:06;100405.50;;;12.68;85.37
59435;BME280;45241;49.768;8.636;2023-03-20T00:11:34;100409.03;;;12.69;84.87
59435;BME280;45241;49.768;8.636;2023-03-20T00:14:08;100414.84;;;12.72;85.96
59435;BME280;45241;49.768;8.636;2023-03-20T00:16:43;100410.66;;;12.63;86.43
59435;BME280;45241;49.768;8.636;2023-03-20T00:19:17;100407.41;;;12.81;86.10
59435;BME280;45241;49.768;8.636;2023-03-20T00:21:44;100417.75;;;12.77;85.97
59435;BME280;45241;49.768;8.636;2023-03-20T00:24:11;100416.53;;;12.80;86.56
59435;BME280;45241;49.768;8.636;2023-03-20T00:26:37;100419.84;;;12.82;86.31
59435;BME280;45241;49.768;8.636;2023-03-20T00:29:04;100423.38;;;12.82;86.69
59435;BME280;45241;49.768;8.636;2023-03-20T00:31:33;100425.25;;;12.88;85.88
59435;BME280;45241;49.768;8.636;2023-03-20T00:34:04;100427.31;;;12.86;86.67
59435;BME280;45241;49.768;8.636;2023-03-20T00:36:30;100430.03;;;12.93;86.23
59435;BME280;45241;49.768;8.636;2023-03-20T00:38:56;100429.22;;;12.93;86.38
59435;BME280;45241;49.768;8.636;2023-03-20T00:41:36;100434.63;;;12.99;86.59
59435;BME280;45241;49.768;8.636;2023-03-20T00:44:35;100438.13;;;12.93;87.51
59435;BME280;45241;49.768;8.636;2023-03-20T00:47:21;100434.50;;;12.73;89.08
59435;BME280;45241;49.768;8.636;2023-03-20T00:49:49;100425.88;;;12.84;88.70
59435;BME280;45241;49.768;8.636;2023-03-20T00:52:16;100424.38;;;12.81;89.73
59435;BME280;45241;49.768;8.636;2023-03-20T00:54:42;100425.78;;;12.64;90.84
59435;BME280;45241;49.768;8.636;2023-03-20T00:57:12;100434.09;;;12.69;90.57
59435;BME280;45241;49.768;8.636;2023-03-20T00:59:41;100431.00;;;12.72;90.97
59435;BME280;45241;49.768;8.636;2023-03-20T01:02:11;100438.03;;;12.80;90.59
59435;BME280;45241;49.768;8.636;2023-03-20T01:04:39;100438.53;;;12.90;90.20
59435;BME280;45241;49.768;8.636;2023-03-20T01:07:06;100439.56;;;12.89;89.98
59435;BME280;45241;49.768;8.636;2023-03-20T01:09:33;100451.00;;;12.98;90.27
59435;BME280;45241;49.768;8.636;2023-03-20T01:11:59;100436.09;;;13.02;89.40
59435;BME280;45241;49.768;8.636;2023-03-20T01:14:25;100438.16;;;13.00;89.29
59435;BME280;45241;49.768;8.636;2023-03-20T01:16:50;100426.34;;;13.01;89.24
59435;BME280;45241;49.768;8.636;2023-03-20T01:19:16;100432.38;;;13.03;89.99
59435;BME280;45241;49.768;8.636;2023-03-20T01:21:41;100434.22;;;13.02;90.75
59435;BME280;45241;49.768;8.636;2023-03-20T01:24:07;100434.00;;;12.97;90.93
59435;BME280;45241;49.768;8.636;2023-03-20T01:26:41;100425.13;;;13.03;89.87
59435;BME280;45241;49.768;8.636;2023-03-20T01:31:46;100434.88;;;13.11;89.39
59435;BME280;45241;49.768;8.636;2023-03-20T01:34:11;100433.84;;;13.12;89.94
59435;BME280;45241;49.768;8.636;2023-03-20T01:36:37;100444.41;;;13.13;89.86
59435;BME280;45241;49.768;8.636;2023-03-20T01:39:03;100443.59;;;13.13;89.89
59435;BME280;45241;49.768;8.636;2023-03-20T01:41:28;100441.47;;;13.02;90.55
59435;BME280;45241;49.768;8.636;2023-03-20T01:43:54;100450.22;;;13.10;89.82
59435;BME280;45241;49.768;8.636;2023-03-20T01:46:26;100445.84;;;13.09;89.82
59435;BME280;45241;49.768;8.636;2023-03-20T01:51:26;100447.72;;;13.09;89.45
59435;BME280;45241;49.768;8.636;2023-03-20T01:54:13;100445.66;;;13.11;88.94
59435;BME280;45241;49.768;8.636;2023-03-20T01:56:46;100440.69;;;13.14;89.19
59435;BME280;45241;49.768;8.636;2023-03-20T01:59:16;100433.84;;;13.12;88.97
59435;BME280;45241;49.768;8.636;2023-03-20T02:01:44;100436.50;;;12.99;89.92
59435;BME280;45241;49.768;8.636;2023-03-20T02:04:11;100434.44;;;13.01;89.46
59435;BME280;45241;49.768;8.636;2023-03-20T02:06:38;100438.78;;;13.02;89.14
59435;BME280;45241;49.768;8.636;2023-03-20T02:09:04;100442.94;;;13.04;89.60
59435;BME280;45241;49.768;8.636;2023-03-20T02:11:30;100441.06;;;13.05;89.35
59435;BME280;45241;49.768;8.636;2023-03-20T02:13:57;100446.44;;;12.98;90.08
59435;BME280;45241;49.768;8.636;2023-03-20T02:16:23;100448.50;;;12.96;89.53
59435;BME280;45241;49.768;8.636;2023-03-20T02:18:51;100443.97;;;13.03;88.89
59435;BME280;45241;49.768;8.636;2023-03-20T02:27:08;100442.72;;;13.06;89.31
59435;BME280;45241;49.768;8.636;2023-03-20T02:30:15;100448.94;;;13.06;88.52
59435;BME280;45241;49.768;8.636;2023-03-20T02:36:02;100449.19;;;12.70;90.96
59435;BME280;45241;49.768;8.636;2023-03-20T02:38:50;100448.25;;;12.91;89.74
59435;BME280;45241;49.768;8.636;2023-03-20T02:41:42;100452.66;;;12.99;89.37
59435;BME280;45241;49.768;8.636;2023-03-20T02:44:25;100458.44;;;12.96;89.37
59435;BME280;45241;49.768;8.636;2023-03-20T02:47:02;100451.38;;;12.95;89.45
59435;BME280;45241;49.768;8.636;2023-03-20T02:57:40;100457.13;;;12.85;89.64
59435;BME280;45241;49.768;8.636;2023-03-20T03:00:14;100460.78;;;12.77;90.05
59435;BME280;45241;49.768;8.636;2023-03-20T03:02:54;100462.84;;;12.75;91.09
59435;BME280;45241;49.768;8.636;2023-03-20T03:05:29;100463.06;;;12.74;90.84
59435;BME280;45241;49.768;8.636;2023-03-20T03:07:57;100466.78;;;12.73;91.28
59435;BME280;45241;49.768;8.636;2023-03-20T03:10:48;100460.78;;;12.77;90.89
59435;BME280;45241;49.768;8.636;2023-03-20T03:13:20;100463.28;;;12.72;91.46
59435;BME280;45241;49.768;8.636;2023-03-20T03:15:50;100468.66;;;12.79;90.78
59435;BME280;45241;49.768;8.636;2023-03-20T03:18:19;100471.09;;;12.67;91.43
59435;BME280;45241;49.768;8.636;2023-03-20T03:20:47;100473.19;;;12.72;91.71
59435;BME280;45241;49.768;8.636;2023-03-20T03:23:32;100464.72;;;12.75;91.01
59435;BME280;45241;49.768;8.636;2023-03-20T03:26:00;100462.84;;;12.75;91.75
59435;BME280;45241;49.768;8.636;2023-03-20T03:28:32;100460.94;;;12.62;91.92
59435;BME280;45241;49.768;8.636;2023-03-20T03:31:03;100460.38;;;12.80;90.68
59435;BME280;45241;49.768;8.636;2023-03-20T03:33:31;100461.97;;;12.68;91.71
59435;BME280;45241;49.768;8.636;2023-03-20T03:38:57;100451.28;;;12.81;90.70
59435;BME280;45241;49.768;8.636;2023-03-20T03:46:51;100459.22;;;12.89;90.24
59435;BME280;45241;49.768;8.636;2023-03-20T03:49:21;100462.25;;;12.80;90.43
59435;BME280;45241;49.768;8.636;2023-03-20T03:51:50;100463.72;;;12.82;90.58
59435;BME280;45241;49.768;8.636;2023-03-20T03:54:26;100470.38;;;12.86;90.55
59435;BME280;45241;49.768;8.636;2023-03-20T03:56:52;100467.94;;;12.91;90.72
59435;BME280;45241;49.768;8.636;2023-03-20T03:59:32;100471.75;;;12.76;90.66
59435;BME280;45241;49.768;8.636;2023-03-20T04:02:00;100475.69;;;12.80;90.94
59435;BME280;45241;49.768;8.636;2023-03-20T04:04:28;100479.22;;;12.80;90.98
59435;BME280;45241;49.768;8.636;2023-03-20T04:06:54;100481.28;;;12.78;91.16
59435;BME280;45241;49.768;8.636;2023-03-20T04:09:19;100482.53;;;12.76;91.29
59435;BME280;45241;49.768;8.636;2023-03-20T04:11:49;100478.19;;;12.81;90.92
59435;BME280;45241;49.768;8.636;2023-03-20T04:14:14;100477.56;;;12.79;90.84
59435;BME280;45241;49.768;8.636;2023-03-20T04:16:40;100471.97;;;12.81;90.87
59435;BME280;45241;49.768;8.636;2023-03-20T04:19:06;100477.56;;;12.79;90.74
59435;BME280;45241;49.768;8.636;2023-03-20T04:21:31;100481.06;;;12.80;91.61
59435;BME280;45241;49.768;8.636;2023-03-20T04:23:57;100479.63;;;12.77;91.23
59435;BME280;45241;49.768;8.636;2023-03-20T04:26:22;100480.09;;;12.87;90.58
59435;BME280;45241;49.768;8.636;2023-03-20T04:28:49;100476.09;;;12.77;91.44
59435;BME280;45241;49.768;8.636;2023-03-20T04:31:14;100473.63;;;12.75;91.09
59435;BME280;45241;49.768;8.636;2023-03-20T04:33:40;100478.16;;;12.75;91.55
59435;BME280;45241;49.768;8.636;2023-03-20T04:36:06;100475.06;;;12.78;91.06
59435;BME280;45241;49.768;8.636;2023-03-20T04:38:31;100483.97;;;12.78;91.26
59435;BME280;45241;49.768;8.636;2023-03-20T04:40:57;100478.00;;;12.83;90.82
59435;BME280;45241;49.768;8.636;2023-03-20T04:43:22;100485.63;;;12.79;91.32
59435;BME280;45241;49.768;8.636;2023-03-20T04:45:47;100488.78;;;12.83;91.20
59435;BME280;45241;49.768;8.636;2023-03-20T04:48:13;100483.56;;;12.81;91.04
59435;BME280;45241;49.768;8.636;2023-03-20T04:50:38;100487.06;;;12.75;91.33
59435;BME280;45241;49.768;8.636;2023-03-20T04:53:03;100488.56;;;12.84;90.95
59435;BME280;45241;49.768;8.636;2023-03-20T04:55:29;100492.13;;;12.91;90.43
59435;BME280;45241;49.768;8.636;2023-03-20T04:57:55;100492.09;;;12.85;90.96
59435;BME280;45241;49.768;8.636;2023-03-20T05:00:20;100491.94;;;12.93;90.53
59435;BME280;45241;49.768;8.636;2023-03-20T05:02:46;100497.06;;;12.88;90.98
59435;BME280;45241;49.768;8.636;2023-03-20T05:05:11;100501.91;;;12.99;90.40
59435;BME280;45241;49.768;8.636;2023-03-20T05:07:36;100501.09;;;12.99;90.55
59435;BME280;45241;49.768;8.636;2023-03-20T05:10:03;100504.81;;;12.98;90.50
59435;BME280;45241;49.768;8.636;2023-03-20T05:12:29;100505.84;;;12.97;90.30
59435;BME280;45241;49.768;8.636;2023-03-20T05:14:54;100505.59;;;12.91;90.88
59435;BME280;45241;49.768;8.636;2023-03-20T05:17:21;100503.47;;;12.87;91.21
59435;BME280;45241;49.768;8.636;2023-03-20T05:19:47;100501.56;;;12.74;92.50
59435;BME280;45241;49.768;8.636;2023-03-20T05:22:12;100509.66;;;12.81;91.96
59435;BME280;45241;49.768;8.636;2023-03-20T05:24:38;100506.16;;;12.87;91.42
59435;BME280;45241;49.768;8.636;2023-03-20T05:27:03;100509.69;;;12.87;90.99
59435;BME280;45241;49.768;8.636;2023-03-20T05:29:28;100505.34;;;12.86;91.26
59435;BME280;45241;49.768;8.636;2023-03-20T05:31:53;100506.03;;;12.95;91.42
59435;BME280;45241;49.768;8.636;2023-03-20T05:34:20;100494.22;;;12.89;90.86
59435;BME280;45241;49.768;8.636;2023-03-20T05:36:45;100499.81;;;12.95;90.73
59435;BME280;45241;49.768;8.636;2023-03-20T05:39:10;100494.00;;;12.91;90.94
59435;BME280;45241;49.768;8.636;2023-03-20T05:41:36;100492.38;;;12.97;91.38
59435;BME280;45241;49.768;8.636;2023-03-20T05:44:01;100495.91;;;12.97;91.17
59435;BME280;45241;49.768;8.636;2023-03-20T05:46:26;100489.69;;;12.97;90.95
59435;BME280;45241;49.768;8.636;2023-03-20T05:48:51;100479.16;;;13.02;90.60
59435;BME280;45241;49.768;8.636;2023-03-20T05:51:17;100475.41;;;12.96;91.28
59435;BME280;45241;49.768;8.636;2023-03-20T05:53:42;100479.75;;;12.97;91.29
59435;BME280;45241;49.768;8.636;2023-03-20T05:56:08;100488.88;;;12.96;92.06
59435;BME280;45241;49.768;8.636;2023-03-20T05:58:33;100491.94;;;12.93;91.30
59435;BME280;45241;49.768;8.636;2023-03-20T06:00:59;100497.38;;;13.00;91.55
59435;BME280;45241;49.768;8.636;2023-03-20T06:03:24;100493.84;;;13.06;91.52
59435;BME280;45241;49.768;8.636;2023-03-20T06:05:50;100502.41;;;12.81;92.36
59435;BME280;45241;49.768;8.636;2023-03-20T06:08:15;100505.28;;;12.80;92.71
59435;BME280;45241;49.768;8.636;2023-03-20T06:10:41;100509.69;;;12.87;92.03
59435;BME280;45241;49.768;8.636;2023-03-20T06:13:06;100513.03;;;12.89;91.70
59435;BME280;45241;49.768;8.636;2023-03-20T06:15:32;100521.28;;;12.88;92.46
59435;BME280;45241;49.768;8.636;2023-03-20T06:17:57;100510.09;;;12.84;92.17
59435;BME280;45241;49.768;8.636;2023-03-20T06:20:23;100516.56;;;12.90;92.05
59435;BME280;45241;49.768;8.636;2023-03-20T06:22:49;100523.19;;;12.94;92.43
59435;BME280;45241;49.768;8.636;2023-03-20T06:25:15;100523.75;;;12.83;92.49
59435;BME280;45241;49.768;8.636;2023-03-20T06:27:40;100516.34;;;12.91;91.98
59435;BME280;45241;49.768;8.636;2023-03-20T06:30:06;100520.34;;;12.96;92.60
59435;BME280;45241;49.768;8.636;2023-03-20T06:32:32;100523.69;;;12.76;93.31
59435;BME280;45241;49.768;8.636;2023-03-20T06:34:57;100525.66;;;12.89;92.62
59435;BME280;45241;49.768;8.636;2023-03-20T06:37:22;100520.91;;;12.91;92.42
59435;BME280;45241;49.768;8.636;2023-03-20T06:39:48;100536.81;;;12.86;93.00
59435;BME280;45241;49.768;8.636;2023-03-20T06:42:13;100536.75;;;12.79;93.13
59435;BME280;45241;49.768;8.636;2023-03-20T06:44:39;100538.72;;;12.92;92.75
59435;BME280;45241;49.768;8.636;2023-03-20T06:47:04;100537.63;;;12.86;92.64
59435;BME280;45241;49.768;8.636;2023-03-20T06:49:30;100543.63;;;12.82;93.93
59435;BME280;45241;49.768;8.636;2023-03-20T06:51:55;100545.38;;;12.68;94.39
59435;BME280;45241;49.768;8.636;2023-03-20T06:54:21;100547.97;;;12.55;94.81
59435;BME280;45241;49.768;8.636;2023-03-20T06:56:46;100545.00;;;12.71;94.42
59435;BME280;45241;49.768;8.636;2023-03-20T06:59:11;100545.00;;;12.71;94.27
59435;BME280;45241;49.768;8.636;2023-03-20T07:01:37;100544.16;;;12.71;93.82
59435;BME280;45241;49.768;8.636;2023-03-20T07:04:02;100544.09;;;12.57;94.86
59435;BME280;45241;49.768;8.636;2023-03-20T07:06:27;100548.44;;;12.58;94.76
59435;BME280;45241;49.768;8.636;2023-03-20T07:08:53;100540.88;;;12.75;94.17
59435;BME280;45241;49.768;8.636;2023-03-20T07:11:18;100544.38;;;12.69;94.13
59435;BME280;45241;49.768;8.636;2023-03-20T07:13:44;100549.19;;;12.52;95.67
59435;BME280;45241;49.768;8.636;2023-03-20T07:16:09;100546.22;;;12.41;97.42
59435;BME280;45241;49.768;8.636;2023-03-20T07:18:34;100541.88;;;12.40;97.73
59435;BME280;45241;49.768;8.636;2023-03-20T07:21:03;100534.63;;;12.40;98.08
59435;BME280;45241;49.768;8.636;2023-03-20T07:23:29;100543.88;;;12.31;98.93
59435;BME280;45241;49.768;8.636;2023-03-20T07:25:55;100539.81;;;12.42;98.61
59435;BME280;45241;49.768;8.636;2023-03-20T07:28:20;100549.09;;;12.39;99.05
59435;BME280;45241;49.768;8.636;2023-03-20T07:30:46;100543.91;;;12.38;99.94
59435;BME280;45241;49.768;8.636;2023-03-20T07:33:11;100552.53;;;12.26;100.00
59435;BME280;45241;49.768;8.636;2023-03-20T07:35:36;100552.00;;;12.38;100.00
59435;BME280;45241;49.768;8.636;2023-03-20T07:38:03;100557.06;;;12.54;100.00
59435;BME280;45241;49.768;8.636;2023-03-20T07:40:29;100554.00;;;12.57;100.00
59435;BME280;45241;49.768;8.636;2023-03-20T07:42:54;100555.88;;;12.56;100.00
59435;BME280;45241;49.768;8.636;2023-03-20T07:45:19;100556.84;;;12.49;100.00
59435;BME280;45241;49.768;8.636;2023-03-20T07:47:45;100557.91;;;12.54;100.00
59435;BME280;45241;49.768;8.636;2023-03-20T07:50:12;100564.16;;;12.61;100.00
59435;BME280;45241;49.768;8.636;2023-03-20T07:52:38;100563.72;;;12.58;100.00
59435;BME280;45241;49.768;8.636;2023-03-20T07:55:03;100568.66;;;12.54;100.00
59435;BME280;45241;49.768;8.636;2023-03-20T07:57:28;100560.69;;;12.40;100.00
59435;BME280;45241;49.768;8.636;2023-03-20T07:59:54;100570.72;;;12.52;100.00
59435;BME280;45241;49.768;8.636;2023-03-20T08:02:19;100573.09;;;12.69;100.00
59435;BME280;45241;49.768;8.636;2023-03-20T08:04:45;100574.09;;;12.61;100.00
59435;BME280;45241;49.768;8.636;2023-03-20T08:07:10;100570.31;;;12.55;100.00
59435;BME280;45241;49.768;8.636;2023-03-20T08:09:36;100566.97;;;12.47;100.00
59435;BME280;45241;49.768;8.636;2023-03-20T08:12:02;100583.31;;;12.52;100.00
59435;BME280;45241;49.768;8.636;2023-03-20T08:14:28;100578.53;;;12.47;100.00
59435;BME280;45241;49.768;8.636;2023-03-20T08:16:53;100589.03;;;12.42;100.00
59435;BME280;45241;49.768;8.636;2023-03-20T08:19:18;100585.44;;;12.56;100.00
59435;BME280;45241;49.768;8.636;2023-03-20T08:21:44;100586.81;;;12.46;100.00
59435;BME280;45241;49.768;8.636;2023-03-20T08:24:09;100586.09;;;12.58;100.00
59435;BME280;45241;49.768;8.636;2023-03-20T08:26:35;100590.97;;;12.48;100.00
59435;BME280;45241;49.768;8.636;2023-03-20T08:29:00;100574.41;;;12.45;100.00
59435;BME280;45241;49.768;8.636;2023-03-20T08:31:26;100578.00;;;12.58;100.00
59435;BME280;45241;49.768;8.636;2023-03-20T08:33:51;100584.22;;;12.59;100.00
59435;BME280;45241;49.768;8.636;2023-03-20T08:36:16;100590.22;;;12.61;100.00
59435;BME280;45241;49.768;8.636;2023-03-20T08:38:45;100595.75;;;12.53;100.00
59435;BME280;45241;49.768;8.636;2023-03-20T08:41:11;100593.50;;;12.56;100.00
59435;BME280;45241;49.768;8.636;2023-03-20T08:43:36;100600.91;;;12.54;100.00
59435;BME280;45241;49.768;8.636;2023-03-20T08:46:02;100601.09;;;12.46;100.00
59435;BME280;45241;49.768;8.636;2023-03-20T08:48:28;100595.59;;;12.61;100.00
59435;BME280;45241;49.768;8.636;2023-03-20T08:50:53;100607.53;;;12.52;100.00
59435;BME280;45241;49.768;8.636;2023-03-20T08:53:19;100601.00;;;12.61;100.00
59435;BME280;45241;49.768;8.636;2023-03-20T08:55:48;100614.97;;;12.50;100.00
59435;BME280;45241;49.768;8.636;2023-03-20T08:58:14;100621.16;;;12.50;100.00
59435;BME280;45241;49.768;8.636;2023-03-20T09:00:39;100616.72;;;12.64;100.00
59435;BME280;45241;49.768;8.636;2023-03-20T09:03:06;100620.84;;;12.60;100.00
59435;BME280;45241;49.768;8.636;2023-03-20T09:05:31;100617.56;;;12.65;100.00
59435;BME280;45241;49.768;8.636;2023-03-20T09:07:56;100622.06;;;12.57;100.00
59435;BME280;45241;49.768;8.636;2023-03-20T09:10:22;100618.78;;;12.62;100.00
59435;BME280;45241;49.768;8.636;2023-03-20T09:12:47;100619.84;;;12.68;100.00
59435;BME280;45241;49.768;8.636;2023-03-20T09:15:12;100623.94;;;12.57;100.00
59435;BME280;45241;49.768;8.636;2023-03-20T09:17:38;100619.28;;;12.72;100.00
59435;BME280;45241;49.768;8.636;2023-03-20T09:20:03;100624.16;;;12.62;100.00
59435;BME280;45241;49.768;8.636;2023-03-20T09:22:29;100623.66;;;12.52;100.00
59435;BME280;45241;49.768;8.636;2023-03-20T09:24:55;100630.34;;;12.56;100.00
59435;BME280;45241;49.768;8.636;2023-03-20T09:27:20;100629.84;;;12.74;100.00
59435;BME280;45241;49.768;8.636;2023-03-20T09:29:45;100626.72;;;12.70;100.00
59435;BME280;45241;49.768;8.636;2023-03-20T09:32:12;100633.41;;;12.81;100.00
59435;BME280;45241;49.768;8.636;2023-03-20T09:34:37;100643.72;;;12.77;100.00
59435;BME280;45241;49.768;8.636;2023-03-20T09:37:02;100633.91;;;12.91;100.00
59435;BME280;45241;49.768;8.636;2023-03-20T09:39:28;100632.53;;;13.02;100.00
59435;BME280;45241;49.768;8.636;2023-03-20T09:41:55;100636.56;;;13.12;100.00
59435;BME280;45241;49.768;8.636;2023-03-20T09:50:31;100643.44;;;13.22;100.00
59435;BME280;45241;49.768;8.636;2023-03-20T09:55:35;100655.19;;;13.14;100.00
59435;BME280;45241;49.768;8.636;2023-03-20T09:58:24;100642.75;;;13.13;100.00
59435;BME280;45241;49.768;8.636;2023-03-20T10:00:50;100644.72;;;13.32;100.00
59435;BME280;45241;49.768;8.636;2023-03-20T10:03:23;100637.75;;;13.44;100.00
59435;BME280;45241;49.768;8.636;2023-03-20T10:05:58;100643.31;;;13.36;100.00
59435;BME280;45241;49.768;8.636;2023-03-20T10:08:34;100636.69;;;13.39;100.00
59435;BME280;45241;49.768;8.636;2023-03-20T10:16:42;100640.53;;;13.64;98.82
59435;BME280;45241;49.768;8.636;2023-03-20T10:19:24;100637.22;;;13.69;98.73
59435;BME280;45241;49.768;8.636;2023-03-20T10:22:21;100633.53;;;13.76;97.36
59435;BME280;45241;49.768;8.636;2023-03-20T10:24:53;100626.44;;;13.69;96.43
59435;BME280;45241;49.768;8.636;2023-03-20T10:27:23;100631.59;;;13.57;97.70
59435;BME280;45241;49.768;8.636;2023-03-20T10:30:22;100633.50;;;13.63;98.83
59435;BME280;45241;49.768;8.636;2023-03-20T10:35:56;100628.16;;;13.83;96.08
59435;BME280;45241;49.768;8.636;2023-03-20T10:38:46;100634.13;;;13.72;95.22
59435;BME280;45241;49.768;8.636;2023-03-20T10:41:19;100635.41;;;13.76;95.59
59435;BME280;45241;49.768;8.636;2023-03-20T10:43:48;100629.19;;;13.82;95.32
59435;BME280;45241;49.768;8.636;2023-03-20T10:46:18;100630.25;;;13.88;94.44
59435;BME280;45241;49.768;8.636;2023-03-20T10:49:13;100629.59;;;13.86;94.48
59435;BME280;45241;49.768;8.636;2023-03-20T10:51:55;100624.03;;;13.87;94.45
59435;BME280;45241;49.768;8.636;2023-03-20T10:54:27;100623.22;;;13.87;93.55
59435;BME280;45241;49.768;8.636;2023-03-20T10:56:54;100618.66;;;13.87;93.39
59435;BME280;45241;49.768;8.636;2023-03-20T10:59:33;100627.34;;;13.89;93.51
59435;BME280;45241;49.768;8.636;2023-03-20T11:02:00;100629.00;;;13.97;92.92
59435;BME280;45241;49.768;8.636;2023-03-20T11:04:26;100621.75;;;13.97;92.53
59435;BME280;45241;49.768;8.636;2023-03-20T11:14:59;100613.09;;;14.15;92.04
59435;BME280;45241;49.768;8.636;2023-03-20T11:17:28;100612.28;;;14.28;91.86
59435;BME280;45241;49.768;8.636;2023-03-20T11:19:53;100609.78;;;14.26;92.00
59435;BME280;45241;49.768;8.636;2023-03-20T11:22:27;100602.97;;;14.37;91.12
59435;BME280;45241;49.768;8.636;2023-03-20T11:24:55;100596.75;;;14.43;89.83
59435;BME280;45241;49.768;8.636;2023-03-20T11:27:28;100593.88;;;14.51;89.17
59435;BME280;45241;49.768;8.636;2023-03-20T11:29:55;100584.69;;;14.79;88.19
59435;BME280;45241;49.768;8.636;2023-03-20T11:32:40;100585.50;;;14.92;84.35
59435;BME280;45241;49.768;8.636;2023-03-20T11:37:51;100582.81;;;14.86;75.15
59435;BME280;45241;49.768;8.636;2023-03-20T11:40:24;100581.72;;;15.00;76.73
59435;BME280;45241;49.768;8.636;2023-03-20T11:42:55;100577.41;;;14.86;73.94
59435;BME280;45241;49.768;8.636;2023-03-20T11:45:21;100587.97;;;14.87;73.21
59435;BME280;45241;49.768;8.636;2023-03-20T11:47:49;100588.88;;;14.68;70.72
59435;BME280;45241;49.768;8.636;2023-03-20T11:50:29;100579.94;;;14.67;71.96
59435;BME280;45241;49.768;8.636;2023-03-20T11:52:55;100577.00;;;14.76;70.71
59435;BME280;45241;49.768;8.636;2023-03-20T11:55:30;100581.78;;;14.80;69.44
59435;BME280;45241;49.768;8.636;2023-03-20T11:58:03;100574.09;;;14.84;71.09
59435;BME280;45241;49.768;8.636;2023-03-20T12:00:40;100571.38;;;14.97;71.54
59435;BME280;45241;49.768;8.636;2023-03-20T12:06:12;100561.44;;;14.91;70.95
59435;BME280;45241;49.768;8.636;2023-03-20T12:08:39;100567.78;;;15.03;70.99
59435;BME280;45241;49.768;8.636;2023-03-20T12:14:06;100562.63;;;15.02;69.54
59435;BME280;45241;49.768;8.636;2023-03-20T12:16:36;100552.03;;;15.00;67.21
59435;BME280;45241;49.768;8.636;2023-03-20T12:19:10;100547.63;;;15.12;67.98
59435;BME280;45241;49.768;8.636;2023-03-20T12:21:51;100554.22;;;15.74;66.61
59435;BME280;45241;49.768;8.636;2023-03-20T12:24:36;100539.72;;;15.69;66.07
59435;BME280;45241;49.768;8.636;2023-03-20T12:27:14;100534.03;;;15.77;65.93
59435;BME280;45241;49.768;8.636;2023-03-20T12:29:47;100532.16;;;15.77;65.68
59435;BME280;45241;49.768;8.636;2023-03-20T12:32:37;100530.44;;;15.58;63.79
59435;BME280;45241;49.768;8.636;2023-03-20T12:35:11;100522.84;;;15.73;63.35
59435;BME280;45241;49.768;8.636;2023-03-20T12:37:37;100527.13;;;15.56;61.82
59435;BME280;45241;49.768;8.636;2023-03-20T12:40:03;100530.59;;;15.63;62.35
59435;BME280;45241;49.768;8.636;2023-03-20T12:42:52;100534.19;;;15.57;62.17
59435;BME280;45241;49.768;8.636;2023-03-20T12:45:38;100520.00;;;15.62;62.51
59435;BME280;45241;49.768;8.636;2023-03-20T12:50:44;100523.78;;;15.54;61.14
59435;BME280;45241;49.768;8.636;2023-03-20T12:53:31;100521.06;;;15.54;60.28
59435;BME280;45241;49.768;8.636;2023-03-20T12:58:46;100518.19;;;15.80;59.55
59435;BME280;45241;49.768;8.636;2023-03-20T13:01:31;100523.28;;;15.70;59.91
59435;BME280;45241;49.768;8.636;2023-03-20T13:06:52;100513.81;;;15.48;59.96
59435;BME280;45241;49.768;8.636;2023-03-20T13:09:48;100519.06;;;15.36;61.04
59435;BME280;45241;49.768;8.636;2023-03-20T13:15:02;100508.41;;;15.48;59.53
59435;BME280;45241;49.768;8.636;2023-03-20T13:17:41;100509.56;;;15.27;60.11
59435;BME280;45241;49.768;8.636;2023-03-20T13:20:24;100503.88;;;15.42;59.56
59435;BME280;45241;49.768;8.636;2023-03-20T13:23:07;100500.63;;;15.26;59.37
59435;BME280;45241;49.768;8.636;2023-03-20T13:28:46;100494.69;;;15.56;59.59
59435;BME280;45241;49.768;8.636;2023-03-20T13:31:35;100488.25;;;15.57;58.81
59435;BME280;45241;49.768;8.636;2023-03-20T13:36:49;100490.63;;;15.34;58.38
59435;BME280;45241;49.768;8.636;2023-03-20T13:39:48;100497.00;;;15.46;58.62
59435;BME280;45241;49.768;8.636;2023-03-20T13:42:19;100487.59;;;15.55;57.41
59435;BME280;45241;49.768;8.636;2023-03-20T13:44:46;100479.75;;;15.47;56.11
59435;BME280;45241;49.768;8.636;2023-03-20T13:47:18;100485.16;;;15.40;55.59
59435;BME280;45241;49.768;8.636;2023-03-20T13:50:22;100483.81;;;15.63;55.05
59435;BME280;45241;49.768;8.636;2023-03-20T13:52:57;100476.72;;;15.68;54.72
59435;BME280;45241;49.768;8.636;2023-03-20T13:55:37;100476.75;;;15.62;53.41
59435;BME280;45241;49.768;8.636;2023-03-20T13:58:22;100464.25;;;15.67;51.74
59435;BME280;45241;49.768;8.636;2023-03-20T14:01:10;100471.38;;;15.62;51.73
59435;BME280;45241;49.768;8.636;2023-03-20T14:03:43;100462.03;;;15.51;50.58
59435;BME280;45241;49.768;8.636;2023-03-20T14:07:24;100457.88;;;15.87;50.48
59435;BME280;45241;49.768;8.636;2023-03-20T14:09:02;100448.56;;;16.07;51.37
59435;BME280;45241;49.768;8.636;2023-03-20T14:11:29;100462.59;;;15.91;50.37
59435;BME280;45241;49.768;8.636;2023-03-20T14:14:10;100452.63;;;15.92;50.17
59435;BME280;45241;49.768;8.636;2023-03-20T14:16:37;100450.81;;;16.10;50.47
59435;BME280;45241;49.768;8.636;2023-03-20T14:19:05;100454.16;;;16.06;50.05
59435;BME280;45241;49.768;8.636;2023-03-20T14:21:33;100448.94;;;16.11;48.73
59435;BME280;45241;49.768;8.636;2023-03-20T14:24:04;100458.41;;;15.70;49.28